sensor_id;sensor_type;location;lat;lon;timestamp;P1;durP1;ratioP1;P2;durP2;ratioP2
66189;SDS011;52992;52.084;5.412;2022-08-03T00:00:22;4.07;;;1.80;;
66189;SDS011;52992;52.084;5.412;2022-08-03T00:02:50;2.47;;;1.63;;
66189;SDS011;52992;52.084;5.412;2022-08-03T00:05:17;3.50;;;1.77;;
66189;SDS011;52992;52.084;5.412;2022-08-03T00:07:44;4.50;;;1.90;;
66189;SDS011;52992;52.084;5.412;2022-08-03T00:10:13;3.17;;;1.70;;
66189;SDS011;52992;52.084;5.412;2022-08-03T00:12:40;5.60;;;2.27;;
66189;SDS011;52992;52.084;5.412;2022-08-03T00:15:07;5.33;;;2.10;;
66189;SDS011;52992;52.084;5.412;2022-08-03T00:17:40;5.20;;;1.97;;
66189;SDS011;52992;52.084;5.412;2022-08-03T00:20:18;4.80;;;1.93;;
66189;SDS011;52992;52.084;5.412;2022-08-03T00:22:45;4.63;;;2.00;;
66189;SDS011;52992;52.084;5.412;2022-08-03T00:25:11;5.20;;;1.97;;
66189;SDS011;52992;52.084;5.412;2022-08-03T00:27:38;5.13;;;1.73;;
66189;SDS011;52992;52.084;5.412;2022-08-03T00:30:05;2.30;;;1.90;;
66189;SDS011;52992;52.084;5.412;2022-08-03T00:32:33;3.10;;;1.67;;
66189;SDS011;52992;52.084;5.412;2022-08-03T00:35:00;3.23;;;1.63;;
66189;SDS011;52992;52.084;5.412;2022-08-03T00:37:33;3.97;;;1.87;;
66189;SDS011;52992;52.084;5.412;2022-08-03T00:40:07;5.40;;;2.07;;
66189;SDS011;52992;52.084;5.412;2022-08-03T00:42:45;6.30;;;2.10;;
66189;SDS011;52992;52.084;5.412;2022-08-03T00:45:13;5.37;;;1.90;;
66189;SDS011;52992;52.084;5.412;2022-08-03T00:47:39;4.90;;;2.20;;
66189;SDS011;52992;52.084;5.412;2022-08-03T00:50:06;7.87;;;2.73;;
66189;SDS011;52992;52.084;5.412;2022-08-03T00:52:34;3.83;;;2.03;;
66189;SDS011;52992;52.084;5.412;2022-08-03T00:55:01;6.17;;;2.20;;
66189;SDS011;52992;52.084;5.412;2022-08-03T00:57:29;5.13;;;2.37;;
66189;SDS011;52992;52.084;5.412;2022-08-03T00:59:57;2.33;;;2.03;;
66189;SDS011;52992;52.084;5.412;2022-08-03T01:02:28;3.17;;;2.10;;
66189;SDS011;52992;52.084;5.412;2022-08-03T01:04:54;3.40;;;2.10;;
66189;SDS011;52992;52.084;5.412;2022-08-03T01:07:41;4.80;;;2.27;;
66189;SDS011;52992;52.084;5.412;2022-08-03T01:13:39;5.63;;;2.10;;
66189;SDS011;52992;52.084;5.412;2022-08-03T01:19:48;12.43;;;2.93;;
66189;SDS011;52992;52.084;5.412;2022-08-03T01:22:57;2.57;;;1.80;;
66189;SDS011;52992;52.084;5.412;2022-08-03T01:30:44;4.83;;;2.13;;
66189;SDS011;52992;52.084;5.412;2022-08-03T01:35:46;4.47;;;2.60;;
66189;SDS011;52992;52.084;5.412;2022-08-03T01:38:23;6.47;;;2.43;;
66189;SDS011;52992;52.084;5.412;2022-08-03T01:40:55;4.87;;;2.20;;
66189;SDS011;52992;52.084;5.412;2022-08-03T01:43:24;3.20;;;2.30;;
66189;SDS011;52992;52.084;5.412;2022-08-03T01:46:14;5.13;;;2.43;;
66189;SDS011;52992;52.084;5.412;2022-08-03T01:48:44;4.87;;;2.40;;
66189;SDS011;52992;52.084;5.412;2022-08-03T01:51:14;4.47;;;2.60;;
66189;SDS011;52992;52.084;5.412;2022-08-03T01:53:43;3.17;;;2.57;;
66189;SDS011;52992;52.084;5.412;2022-08-03T01:56:12;5.93;;;2.97;;
66189;SDS011;52992;52.084;5.412;2022-08-03T01:58:40;5.10;;;2.30;;
66189;SDS011;52992;52.084;5.412;2022-08-03T02:01:09;8.37;;;2.73;;
66189;SDS011;52992;52.084;5.412;2022-08-03T02:03:39;3.17;;;2.37;;
66189;SDS011;52992;52.084;5.412;2022-08-03T02:06:26;6.20;;;2.77;;
66189;SDS011;52992;52.084;5.412;2022-08-03T02:09:18;3.53;;;2.70;;
66189;SDS011;52992;52.084;5.412;2022-08-03T02:11:46;4.90;;;3.00;;
66189;SDS011;52992;52.084;5.412;2022-08-03T02:14:14;4.67;;;3.07;;
66189;SDS011;52992;52.084;5.412;2022-08-03T02:16:42;5.50;;;2.80;;
66189;SDS011;52992;52.084;5.412;2022-08-03T02:19:11;4.60;;;3.23;;
66189;SDS011;52992;52.084;5.412;2022-08-03T02:21:38;8.60;;;3.00;;
66189;SDS011;52992;52.084;5.412;2022-08-03T02:24:26;5.70;;;2.67;;
66189;SDS011;52992;52.084;5.412;2022-08-03T02:26:54;6.40;;;2.90;;
66189;SDS011;52992;52.084;5.412;2022-08-03T02:29:23;6.17;;;2.80;;
66189;SDS011;52992;52.084;5.412;2022-08-03T02:32:08;3.80;;;2.60;;
66189;SDS011;52992;52.084;5.412;2022-08-03T02:34:39;5.27;;;2.80;;
66189;SDS011;52992;52.084;5.412;2022-08-03T02:37:09;3.07;;;2.30;;
66189;SDS011;52992;52.084;5.412;2022-08-03T02:39:38;7.77;;;2.87;;
66189;SDS011;52992;52.084;5.412;2022-08-03T02:42:08;6.33;;;2.40;;
66189;SDS011;52992;52.084;5.412;2022-08-03T02:44:39;6.17;;;2.83;;
66189;SDS011;52992;52.084;5.412;2022-08-03T02:47:12;4.90;;;2.43;;
66189;SDS011;52992;52.084;5.412;2022-08-03T02:49:41;7.63;;;3.23;;
66189;SDS011;52992;52.084;5.412;2022-08-03T02:52:18;6.37;;;3.27;;
66189;SDS011;52992;52.084;5.412;2022-08-03T02:54:49;6.47;;;2.77;;
66189;SDS011;52992;52.084;5.412;2022-08-03T02:57:20;4.83;;;2.70;;
66189;SDS011;52992;52.084;5.412;2022-08-03T02:59:48;6.00;;;2.87;;
66189;SDS011;52992;52.084;5.412;2022-08-03T03:02:16;6.17;;;2.60;;
66189;SDS011;52992;52.084;5.412;2022-08-03T03:04:44;8.10;;;3.27;;
66189;SDS011;52992;52.084;5.412;2022-08-03T03:07:32;4.97;;;2.67;;
66189;SDS011;52992;52.084;5.412;2022-08-03T03:10:21;7.60;;;3.27;;
66189;SDS011;52992;52.084;5.412;2022-08-03T03:12:55;6.57;;;2.87;;
66189;SDS011;52992;52.084;5.412;2022-08-03T03:15:23;6.93;;;2.83;;
66189;SDS011;52992;52.084;5.412;2022-08-03T03:17:52;6.73;;;2.63;;
66189;SDS011;52992;52.084;5.412;2022-08-03T03:20:20;5.50;;;2.93;;
66189;SDS011;52992;52.084;5.412;2022-08-03T03:22:55;6.33;;;2.33;;
66189;SDS011;52992;52.084;5.412;2022-08-03T03:25:23;3.97;;;2.80;;
66189;SDS011;52992;52.084;5.412;2022-08-03T03:27:50;5.80;;;2.97;;
66189;SDS011;52992;52.084;5.412;2022-08-03T03:30:17;6.87;;;2.90;;
66189;SDS011;52992;52.084;5.412;2022-08-03T03:32:44;6.30;;;3.00;;
66189;SDS011;52992;52.084;5.412;2022-08-03T03:35:11;6.13;;;2.70;;
66189;SDS011;52992;52.084;5.412;2022-08-03T03:37:39;7.03;;;3.27;;
66189;SDS011;52992;52.084;5.412;2022-08-03T03:40:06;7.30;;;3.00;;
66189;SDS011;52992;52.084;5.412;2022-08-03T03:42:34;8.37;;;3.00;;
66189;SDS011;52992;52.084;5.412;2022-08-03T03:45:04;6.77;;;3.20;;
66189;SDS011;52992;52.084;5.412;2022-08-03T03:47:33;6.23;;;3.07;;
66189;SDS011;52992;52.084;5.412;2022-08-03T03:50:01;5.20;;;3.00;;
66189;SDS011;52992;52.084;5.412;2022-08-03T03:52:31;8.03;;;3.27;;
66189;SDS011;52992;52.084;5.412;2022-08-03T03:54:59;6.23;;;2.80;;
66189;SDS011;52992;52.084;5.412;2022-08-03T03:57:27;5.97;;;3.20;;
66189;SDS011;52992;52.084;5.412;2022-08-03T03:59:54;9.53;;;2.80;;
66189;SDS011;52992;52.084;5.412;2022-08-03T04:02:21;7.67;;;3.00;;
66189;SDS011;52992;52.084;5.412;2022-08-03T04:04:47;8.97;;;3.00;;
66189;SDS011;52992;52.084;5.412;2022-08-03T04:07:36;6.57;;;2.90;;
66189;SDS011;52992;52.084;5.412;2022-08-03T04:10:55;10.87;;;2.93;;
66189;SDS011;52992;52.084;5.412;2022-08-03T04:13:32;7.07;;;3.33;;
66189;SDS011;52992;52.084;5.412;2022-08-03T04:16:03;7.83;;;3.10;;
66189;SDS011;52992;52.084;5.412;2022-08-03T04:18:33;13.70;;;3.37;;
66189;SDS011;52992;52.084;5.412;2022-08-03T04:21:01;6.63;;;3.00;;
66189;SDS011;52992;52.084;5.412;2022-08-03T04:23:32;8.77;;;3.10;;
66189;SDS011;52992;52.084;5.412;2022-08-03T04:26:01;8.20;;;3.23;;
66189;SDS011;52992;52.084;5.412;2022-08-03T04:28:35;9.13;;;3.10;;
66189;SDS011;52992;52.084;5.412;2022-08-03T04:31:04;7.67;;;3.60;;
66189;SDS011;52992;52.084;5.412;2022-08-03T04:33:32;5.93;;;3.23;;
66189;SDS011;52992;52.084;5.412;2022-08-03T04:36:03;8.83;;;3.30;;
66189;SDS011;52992;52.084;5.412;2022-08-03T04:38:35;4.90;;;3.00;;
66189;SDS011;52992;52.084;5.412;2022-08-03T04:41:07;9.90;;;3.53;;
66189;SDS011;52992;52.084;5.412;2022-08-03T04:43:34;9.70;;;3.57;;
66189;SDS011;52992;52.084;5.412;2022-08-03T04:46:04;7.10;;;3.53;;
66189;SDS011;52992;52.084;5.412;2022-08-03T04:48:33;10.53;;;3.60;;
66189;SDS011;52992;52.084;5.412;2022-08-03T04:51:00;6.30;;;3.30;;
66189;SDS011;52992;52.084;5.412;2022-08-03T04:53:29;5.00;;;2.93;;
66189;SDS011;52992;52.084;5.412;2022-08-03T04:56:02;8.23;;;3.20;;
66189;SDS011;52992;52.084;5.412;2022-08-03T04:58:30;5.50;;;3.43;;
66189;SDS011;52992;52.084;5.412;2022-08-03T05:00:58;10.07;;;3.70;;
66189;SDS011;52992;52.084;5.412;2022-08-03T05:03:24;6.47;;;3.13;;
66189;SDS011;52992;52.084;5.412;2022-08-03T05:05:52;9.13;;;3.73;;
66189;SDS011;52992;52.084;5.412;2022-08-03T05:08:28;7.67;;;3.67;;
66189;SDS011;52992;52.084;5.412;2022-08-03T05:10:56;7.27;;;3.50;;
66189;SDS011;52992;52.084;5.412;2022-08-03T05:13:24;12.33;;;3.53;;
66189;SDS011;52992;52.084;5.412;2022-08-03T05:15:51;9.00;;;3.27;;
66189;SDS011;52992;52.084;5.412;2022-08-03T05:18:18;10.93;;;4.10;;
66189;SDS011;52992;52.084;5.412;2022-08-03T05:20:45;10.53;;;3.63;;
66189;SDS011;52992;52.084;5.412;2022-08-03T05:23:12;8.60;;;4.00;;
66189;SDS011;52992;52.084;5.412;2022-08-03T05:25:38;9.63;;;3.50;;
66189;SDS011;52992;52.084;5.412;2022-08-03T05:28:15;9.63;;;3.40;;
66189;SDS011;52992;52.084;5.412;2022-08-03T05:30:41;11.67;;;3.80;;
66189;SDS011;52992;52.084;5.412;2022-08-03T05:33:08;7.20;;;3.87;;
66189;SDS011;52992;52.084;5.412;2022-08-03T05:35:36;7.53;;;3.40;;
66189;SDS011;52992;52.084;5.412;2022-08-03T05:38:24;12.33;;;4.30;;
66189;SDS011;52992;52.084;5.412;2022-08-03T05:41:00;9.60;;;4.47;;
66189;SDS011;52992;52.084;5.412;2022-08-03T05:43:48;10.73;;;4.30;;
66189;SDS011;52992;52.084;5.412;2022-08-03T05:46:15;6.33;;;3.23;;
66189;SDS011;52992;52.084;5.412;2022-08-03T05:48:42;6.10;;;3.93;;
66189;SDS011;52992;52.084;5.412;2022-08-03T05:51:09;9.10;;;4.27;;
66189;SDS011;52992;52.084;5.412;2022-08-03T05:53:39;7.30;;;3.53;;
66189;SDS011;52992;52.084;5.412;2022-08-03T05:56:07;9.30;;;3.67;;
66189;SDS011;52992;52.084;5.412;2022-08-03T05:58:44;9.87;;;3.73;;
66189;SDS011;52992;52.084;5.412;2022-08-03T06:01:13;11.10;;;3.90;;
66189;SDS011;52992;52.084;5.412;2022-08-03T06:03:41;9.17;;;3.70;;
66189;SDS011;52992;52.084;5.412;2022-08-03T06:06:07;9.63;;;3.80;;
66189;SDS011;52992;52.084;5.412;2022-08-03T06:08:34;7.17;;;3.90;;
66189;SDS011;52992;52.084;5.412;2022-08-03T06:11:02;7.60;;;3.50;;
66189;SDS011;52992;52.084;5.412;2022-08-03T06:13:29;8.07;;;4.40;;
66189;SDS011;52992;52.084;5.412;2022-08-03T06:15:56;9.00;;;3.93;;
66189;SDS011;52992;52.084;5.412;2022-08-03T06:18:23;14.07;;;4.00;;
66189;SDS011;52992;52.084;5.412;2022-08-03T06:20:50;9.43;;;3.60;;
66189;SDS011;52992;52.084;5.412;2022-08-03T06:23:17;10.13;;;3.90;;
66189;SDS011;52992;52.084;5.412;2022-08-03T06:25:45;8.93;;;3.97;;
66189;SDS011;52992;52.084;5.412;2022-08-03T06:28:12;8.53;;;3.60;;
66189;SDS011;52992;52.084;5.412;2022-08-03T06:31:00;9.53;;;3.33;;
66189;SDS011;52992;52.084;5.412;2022-08-03T06:33:27;12.73;;;4.17;;
66189;SDS011;52992;52.084;5.412;2022-08-03T06:36:14;10.10;;;3.73;;
66189;SDS011;52992;52.084;5.412;2022-08-03T06:38:41;11.53;;;3.43;;
66189;SDS011;52992;52.084;5.412;2022-08-03T06:41:08;13.90;;;4.50;;
66189;SDS011;52992;52.084;5.412;2022-08-03T06:43:34;8.90;;;3.33;;
66189;SDS011;52992;52.084;5.412;2022-08-03T06:46:22;8.00;;;3.17;;
66189;SDS011;52992;52.084;5.412;2022-08-03T06:48:49;9.27;;;4.13;;
66189;SDS011;52992;52.084;5.412;2022-08-03T06:51:16;9.67;;;3.97;;
66189;SDS011;52992;52.084;5.412;2022-08-03T06:53:42;9.27;;;4.23;;
66189;SDS011;52992;52.084;5.412;2022-08-03T06:56:09;10.40;;;4.10;;
66189;SDS011;52992;52.084;5.412;2022-08-03T06:58:36;12.30;;;3.27;;
66189;SDS011;52992;52.084;5.412;2022-08-03T07:01:03;9.17;;;3.70;;
66189;SDS011;52992;52.084;5.412;2022-08-03T07:03:30;10.93;;;3.83;;
66189;SDS011;52992;52.084;5.412;2022-08-03T07:05:58;10.47;;;3.60;;
66189;SDS011;52992;52.084;5.412;2022-08-03T07:08:25;9.00;;;3.70;;
66189;SDS011;52992;52.084;5.412;2022-08-03T07:10:59;10.30;;;4.50;;
66189;SDS011;52992;52.084;5.412;2022-08-03T07:13:26;8.43;;;3.67;;
66189;SDS011;52992;52.084;5.412;2022-08-03T07:15:53;9.97;;;3.87;;
66189;SDS011;52992;52.084;5.412;2022-08-03T07:18:22;6.33;;;2.90;;
66189;SDS011;52992;52.084;5.412;2022-08-03T07:20:55;6.87;;;3.60;;
66189;SDS011;52992;52.084;5.412;2022-08-03T07:23:23;11.97;;;4.17;;
66189;SDS011;52992;52.084;5.412;2022-08-03T07:25:50;8.17;;;3.37;;
66189;SDS011;52992;52.084;5.412;2022-08-03T07:28:18;8.63;;;3.50;;
66189;SDS011;52992;52.084;5.412;2022-08-03T07:30:45;7.13;;;4.17;;
66189;SDS011;52992;52.084;5.412;2022-08-03T07:33:12;7.60;;;3.90;;
66189;SDS011;52992;52.084;5.412;2022-08-03T07:35:40;9.73;;;4.20;;
66189;SDS011;52992;52.084;5.412;2022-08-03T07:38:07;8.80;;;3.67;;
66189;SDS011;52992;52.084;5.412;2022-08-03T07:40:34;11.97;;;3.50;;
66189;SDS011;52992;52.084;5.412;2022-08-03T07:43:00;10.10;;;3.80;;
66189;SDS011;52992;52.084;5.412;2022-08-03T07:45:29;8.03;;;3.10;;
66189;SDS011;52992;52.084;5.412;2022-08-03T07:47:57;8.33;;;3.43;;
66189;SDS011;52992;52.084;5.412;2022-08-03T07:50:24;8.23;;;3.60;;
66189;SDS011;52992;52.084;5.412;2022-08-03T07:52:52;8.77;;;3.50;;
66189;SDS011;52992;52.084;5.412;2022-08-03T07:55:22;10.87;;;3.80;;
66189;SDS011;52992;52.084;5.412;2022-08-03T07:58:12;6.93;;;3.50;;
66189;SDS011;52992;52.084;5.412;2022-08-03T08:00:44;14.60;;;4.43;;
66189;SDS011;52992;52.084;5.412;2022-08-03T08:03:11;7.93;;;3.50;;
66189;SDS011;52992;52.084;5.412;2022-08-03T08:05:38;10.33;;;3.73;;
66189;SDS011;52992;52.084;5.412;2022-08-03T08:08:05;11.63;;;3.63;;
66189;SDS011;52992;52.084;5.412;2022-08-03T08:10:32;6.13;;;3.13;;
66189;SDS011;52992;52.084;5.412;2022-08-03T08:13:00;9.50;;;3.00;;
66189;SDS011;52992;52.084;5.412;2022-08-03T08:15:27;8.27;;;3.00;;
66189;SDS011;52992;52.084;5.412;2022-08-03T08:17:55;11.37;;;3.23;;
66189;SDS011;52992;52.084;5.412;2022-08-03T08:20:24;13.97;;;3.80;;
66189;SDS011;52992;52.084;5.412;2022-08-03T08:22:58;11.37;;;3.30;;
66189;SDS011;52992;52.084;5.412;2022-08-03T08:25:50;9.37;;;3.30;;
66189;SDS011;52992;52.084;5.412;2022-08-03T08:28:21;9.43;;;3.63;;
66189;SDS011;52992;52.084;5.412;2022-08-03T08:30:58;13.17;;;3.20;;
66189;SDS011;52992;52.084;5.412;2022-08-03T08:33:25;8.97;;;3.13;;
66189;SDS011;52992;52.084;5.412;2022-08-03T08:36:08;7.60;;;3.50;;
66189;SDS011;52992;52.084;5.412;2022-08-03T08:38:40;9.03;;;3.40;;
66189;SDS011;52992;52.084;5.412;2022-08-03T08:41:09;7.43;;;3.43;;
66189;SDS011;52992;52.084;5.412;2022-08-03T08:43:37;11.17;;;3.27;;
66189;SDS011;52992;52.084;5.412;2022-08-03T08:46:04;10.63;;;3.30;;
66189;SDS011;52992;52.084;5.412;2022-08-03T08:48:35;8.60;;;3.47;;
66189;SDS011;52992;52.084;5.412;2022-08-03T08:51:06;11.13;;;3.27;;
66189;SDS011;52992;52.084;5.412;2022-08-03T08:53:36;6.93;;;2.93;;
66189;SDS011;52992;52.084;5.412;2022-08-03T08:56:05;11.87;;;3.37;;
66189;SDS011;52992;52.084;5.412;2022-08-03T08:58:39;11.27;;;3.30;;
66189;SDS011;52992;52.084;5.412;2022-08-03T09:01:12;15.47;;;3.80;;
66189;SDS011;52992;52.084;5.412;2022-08-03T09:03:39;11.53;;;3.30;;
66189;SDS011;52992;52.084;5.412;2022-08-03T09:06:06;9.30;;;3.37;;
66189;SDS011;52992;52.084;5.412;2022-08-03T09:08:33;7.57;;;2.80;;
66189;SDS011;52992;52.084;5.412;2022-08-03T09:11:00;9.70;;;3.07;;
66189;SDS011;52992;52.084;5.412;2022-08-03T09:13:27;10.23;;;3.40;;
66189;SDS011;52992;52.084;5.412;2022-08-03T09:16:13;9.70;;;3.03;;
66189;SDS011;52992;52.084;5.412;2022-08-03T09:18:43;11.27;;;3.20;;
66189;SDS011;52992;52.084;5.412;2022-08-03T09:23:57;11.07;;;3.40;;
66189;SDS011;52992;52.084;5.412;2022-08-03T09:26:29;7.90;;;2.70;;
66189;SDS011;52992;52.084;5.412;2022-08-03T09:28:57;8.53;;;3.07;;
66189;SDS011;52992;52.084;5.412;2022-08-03T09:31:38;10.40;;;3.00;;
66189;SDS011;52992;52.084;5.412;2022-08-03T09:34:10;12.70;;;3.53;;
66189;SDS011;52992;52.084;5.412;2022-08-03T09:36:42;8.33;;;3.00;;
66189;SDS011;52992;52.084;5.412;2022-08-03T09:39:15;8.60;;;3.13;;
66189;SDS011;52992;52.084;5.412;2022-08-03T09:41:45;9.57;;;3.30;;
66189;SDS011;52992;52.084;5.412;2022-08-03T09:44:13;9.80;;;3.33;;
66189;SDS011;52992;52.084;5.412;2022-08-03T09:46:51;8.07;;;3.03;;
66189;SDS011;52992;52.084;5.412;2022-08-03T09:49:22;7.37;;;3.00;;
66189;SDS011;52992;52.084;5.412;2022-08-03T09:51:50;11.33;;;3.20;;
66189;SDS011;52992;52.084;5.412;2022-08-03T09:54:38;6.63;;;2.77;;
66189;SDS011;52992;52.084;5.412;2022-08-03T09:57:06;9.07;;;2.65;;
66189;SDS011;52992;52.084;5.412;2022-08-03T09:59:33;11.05;;;3.10;;
66189;SDS011;52992;52.084;5.412;2022-08-03T10:02:06;10.20;;;3.40;;
66189;SDS011;52992;52.084;5.412;2022-08-03T10:04:50;7.43;;;2.60;;
66189;SDS011;52992;52.084;5.412;2022-08-03T10:07:22;9.90;;;2.83;;
66189;SDS011;52992;52.084;5.412;2022-08-03T10:10:00;8.13;;;2.75;;
66189;SDS011;52992;52.084;5.412;2022-08-03T10:12:47;8.25;;;3.05;;
66189;SDS011;52992;52.084;5.412;2022-08-03T10:15:15;9.98;;;3.60;;
66189;SDS011;52992;52.084;5.412;2022-08-03T10:18:03;7.10;;;2.50;;
66189;SDS011;52992;52.084;5.412;2022-08-03T10:20:37;8.95;;;2.85;;
66189;SDS011;52992;52.084;5.412;2022-08-03T10:23:10;12.93;;;3.33;;
66189;SDS011;52992;52.084;5.412;2022-08-03T10:25:39;7.45;;;2.92;;
66189;SDS011;52992;52.084;5.412;2022-08-03T10:28:10;9.35;;;2.60;;
66189;SDS011;52992;52.084;5.412;2022-08-03T10:30:40;8.43;;;2.95;;
66189;SDS011;52992;52.084;5.412;2022-08-03T10:33:31;7.05;;;2.83;;
66189;SDS011;52992;52.084;5.412;2022-08-03T10:36:17;6.43;;;2.42;;
66189;SDS011;52992;52.084;5.412;2022-08-03T10:38:48;7.57;;;2.67;;
66189;SDS011;52992;52.084;5.412;2022-08-03T10:41:22;6.13;;;2.08;;
66189;SDS011;52992;52.084;5.412;2022-08-03T10:44:03;6.75;;;2.33;;
66189;SDS011;52992;52.084;5.412;2022-08-03T10:46:33;5.80;;;2.60;;
66189;SDS011;52992;52.084;5.412;2022-08-03T10:49:13;5.80;;;2.55;;
66189;SDS011;52992;52.084;5.412;2022-08-03T10:51:44;9.93;;;2.92;;
66189;SDS011;52992;52.084;5.412;2022-08-03T11:00:24;7.38;;;2.60;;
66189;SDS011;52992;52.084;5.412;2022-08-03T11:03:06;7.43;;;2.80;;
66189;SDS011;52992;52.084;5.412;2022-08-03T11:05:35;7.65;;;2.60;;
66189;SDS011;52992;52.084;5.412;2022-08-03T11:08:20;7.57;;;3.13;;
66189;SDS011;52992;52.084;5.412;2022-08-03T11:13:57;6.13;;;2.10;;
66189;SDS011;52992;52.084;5.412;2022-08-03T11:16:32;6.80;;;2.22;;
66189;SDS011;52992;52.084;5.412;2022-08-03T11:19:01;6.32;;;2.10;;
66189;SDS011;52992;52.084;5.412;2022-08-03T11:35:12;11.10;;;2.47;;
66189;SDS011;52992;52.084;5.412;2022-08-03T11:48:41;6.95;;;2.10;;
66189;SDS011;52992;52.084;5.412;2022-08-03T11:51:22;5.18;;;2.65;;
66189;SDS011;52992;52.084;5.412;2022-08-03T11:53:51;6.97;;;2.22;;
66189;SDS011;52992;52.084;5.412;2022-08-03T11:56:19;5.38;;;2.83;;
66189;SDS011;52992;52.084;5.412;2022-08-03T11:58:47;7.47;;;3.10;;
66189;SDS011;52992;52.084;5.412;2022-08-03T12:01:35;12.85;;;2.58;;
66189;SDS011;52992;52.084;5.412;2022-08-03T12:04:03;8.13;;;2.55;;
66189;SDS011;52992;52.084;5.412;2022-08-03T12:06:30;6.90;;;2.05;;
66189;SDS011;52992;52.084;5.412;2022-08-03T12:09:17;7.25;;;2.13;;
66189;SDS011;52992;52.084;5.412;2022-08-03T12:11:49;5.13;;;1.80;;
66189;SDS011;52992;52.084;5.412;2022-08-03T12:14:26;7.72;;;2.05;;
66189;SDS011;52992;52.084;5.412;2022-08-03T12:17:14;4.88;;;2.33;;
66189;SDS011;52992;52.084;5.412;2022-08-03T12:19:41;3.90;;;2.38;;
66189;SDS011;52992;52.084;5.412;2022-08-03T12:22:08;6.63;;;2.38;;
66189;SDS011;52992;52.084;5.412;2022-08-03T12:24:44;8.50;;;2.55;;
66189;SDS011;52992;52.084;5.412;2022-08-03T12:27:21;9.35;;;2.50;;
66189;SDS011;52992;52.084;5.412;2022-08-03T12:29:51;8.02;;;2.20;;
66189;SDS011;52992;52.084;5.412;2022-08-03T12:32:24;5.53;;;2.30;;
66189;SDS011;52992;52.084;5.412;2022-08-03T12:34:53;4.85;;;2.10;;
66189;SDS011;52992;52.084;5.412;2022-08-03T12:37:27;6.20;;;2.17;;
66189;SDS011;52992;52.084;5.412;2022-08-03T12:39:55;4.72;;;1.85;;
66189;SDS011;52992;52.084;5.412;2022-08-03T12:42:36;5.95;;;2.20;;
66189;SDS011;52992;52.084;5.412;2022-08-03T12:45:17;3.72;;;1.90;;
66189;SDS011;52992;52.084;5.412;2022-08-03T12:47:55;2.78;;;1.73;;
66189;SDS011;52992;52.084;5.412;2022-08-03T12:50:32;4.55;;;1.98;;
66189;SDS011;52992;52.084;5.412;2022-08-03T12:53:02;5.63;;;2.47;;
66189;SDS011;52992;52.084;5.412;2022-08-03T12:55:34;4.00;;;1.85;;
66189;SDS011;52992;52.084;5.412;2022-08-03T12:58:30;5.03;;;2.25;;
66189;SDS011;52992;52.084;5.412;2022-08-03T13:01:02;3.35;;;2.13;;
66189;SDS011;52992;52.084;5.412;2022-08-03T13:03:53;5.93;;;2.53;;
66189;SDS011;52992;52.084;5.412;2022-08-03T13:06:21;3.90;;;2.42;;
66189;SDS011;52992;52.084;5.412;2022-08-03T13:08:59;2.90;;;2.25;;
66189;SDS011;52992;52.084;5.412;2022-08-03T13:11:28;3.10;;;2.25;;
66189;SDS011;52992;52.084;5.412;2022-08-03T13:14:15;5.10;;;2.40;;
66189;SDS011;52992;52.084;5.412;2022-08-03T13:16:45;5.13;;;2.60;;
66189;SDS011;52992;52.084;5.412;2022-08-03T13:19:13;3.55;;;2.33;;
66189;SDS011;52992;52.084;5.412;2022-08-03T13:21:41;5.07;;;2.42;;
66189;SDS011;52992;52.084;5.412;2022-08-03T13:24:28;5.93;;;2.40;;
66189;SDS011;52992;52.084;5.412;2022-08-03T13:26:57;8.25;;;2.50;;
66189;SDS011;52992;52.084;5.412;2022-08-03T13:29:24;5.80;;;2.58;;
66189;SDS011;52992;52.084;5.412;2022-08-03T13:31:51;4.85;;;2.42;;
66189;SDS011;52992;52.084;5.412;2022-08-03T13:34:17;3.17;;;2.28;;
66189;SDS011;52992;52.084;5.412;2022-08-03T13:36:49;5.88;;;2.50;;
66189;SDS011;52992;52.084;5.412;2022-08-03T13:39:35;5.45;;;2.60;;
66189;SDS011;52992;52.084;5.412;2022-08-03T13:42:22;5.63;;;2.40;;
66189;SDS011;52992;52.084;5.412;2022-08-03T13:44:49;5.63;;;3.20;;
66189;SDS011;52992;52.084;5.412;2022-08-03T13:47:15;4.82;;;3.45;;
66189;SDS011;52992;52.084;5.412;2022-08-03T13:49:43;5.22;;;2.50;;
66189;SDS011;52992;52.084;5.412;2022-08-03T13:52:25;5.20;;;2.60;;
66189;SDS011;52992;52.084;5.412;2022-08-03T13:54:53;4.50;;;2.30;;
66189;SDS011;52992;52.084;5.412;2022-08-03T13:57:19;6.63;;;2.50;;
66189;SDS011;52992;52.084;5.412;2022-08-03T14:00:06;2.30;;;2.10;;
66189;SDS011;52992;52.084;5.412;2022-08-03T14:02:34;5.80;;;2.67;;
66189;SDS011;52992;52.084;5.412;2022-08-03T14:05:01;3.50;;;2.65;;
66189;SDS011;52992;52.084;5.412;2022-08-03T14:07:28;6.18;;;2.50;;
66189;SDS011;52992;52.084;5.412;2022-08-03T14:09:54;6.00;;;2.42;;
66189;SDS011;52992;52.084;5.412;2022-08-03T14:12:22;4.45;;;3.08;;
66189;SDS011;52992;52.084;5.412;2022-08-03T14:14:48;5.30;;;2.22;;
66189;SDS011;52992;52.084;5.412;2022-08-03T14:17:15;5.18;;;2.30;;
66189;SDS011;52992;52.084;5.412;2022-08-03T14:19:42;5.05;;;2.65;;
66189;SDS011;52992;52.084;5.412;2022-08-03T14:22:19;4.28;;;2.63;;
66189;SDS011;52992;52.084;5.412;2022-08-03T14:24:46;3.75;;;2.50;;
66189;SDS011;52992;52.084;5.412;2022-08-03T14:27:14;4.75;;;2.42;;
66189;SDS011;52992;52.084;5.412;2022-08-03T14:29:41;3.30;;;2.15;;
66189;SDS011;52992;52.084;5.412;2022-08-03T14:32:08;2.22;;;1.98;;
66189;SDS011;52992;52.084;5.412;2022-08-03T14:34:39;3.28;;;1.95;;
66189;SDS011;52992;52.084;5.412;2022-08-03T14:37:06;4.05;;;2.22;;
66189;SDS011;52992;52.084;5.412;2022-08-03T14:39:33;3.25;;;2.10;;
66189;SDS011;52992;52.084;5.412;2022-08-03T14:42:20;3.13;;;2.08;;
66189;SDS011;52992;52.084;5.412;2022-08-03T14:44:47;6.05;;;3.10;;
66189;SDS011;52992;52.084;5.412;2022-08-03T14:47:13;3.03;;;2.30;;
66189;SDS011;52992;52.084;5.412;2022-08-03T14:49:40;7.82;;;2.50;;
66189;SDS011;52992;52.084;5.412;2022-08-03T14:52:27;3.95;;;2.20;;
66189;SDS011;52992;52.084;5.412;2022-08-03T14:54:54;6.22;;;2.65;;
66189;SDS011;52992;52.084;5.412;2022-08-03T14:57:21;3.70;;;2.10;;
66189;SDS011;52992;52.084;5.412;2022-08-03T14:59:48;3.50;;;2.70;;
66189;SDS011;52992;52.084;5.412;2022-08-03T15:02:22;4.80;;;2.10;;
66189;SDS011;52992;52.084;5.412;2022-08-03T15:04:50;7.53;;;2.75;;
66189;SDS011;52992;52.084;5.412;2022-08-03T15:07:17;2.50;;;2.10;;
66189;SDS011;52992;52.084;5.412;2022-08-03T15:09:46;2.30;;;2.10;;
66189;SDS011;52992;52.084;5.412;2022-08-03T15:12:13;3.03;;;2.35;;
66189;SDS011;52992;52.084;5.412;2022-08-03T15:14:39;4.70;;;1.98;;
66189;SDS011;52992;52.084;5.412;2022-08-03T15:17:06;3.40;;;1.98;;
66189;SDS011;52992;52.084;5.412;2022-08-03T15:19:33;4.00;;;2.65;;
66189;SDS011;52992;52.084;5.412;2022-08-03T15:22:20;5.97;;;3.10;;
66189;SDS011;52992;52.084;5.412;2022-08-03T15:24:59;3.35;;;2.35;;
66189;SDS011;52992;52.084;5.412;2022-08-03T15:27:27;4.80;;;2.30;;
66189;SDS011;52992;52.084;5.412;2022-08-03T15:29:54;3.50;;;2.10;;
66189;SDS011;52992;52.084;5.412;2022-08-03T15:32:34;5.22;;;3.17;;
66189;SDS011;52992;52.084;5.412;2022-08-03T15:35:01;4.22;;;2.15;;
66189;SDS011;52992;52.084;5.412;2022-08-03T15:37:28;3.65;;;2.47;;
66189;SDS011;52992;52.084;5.412;2022-08-03T15:39:55;3.28;;;2.28;;
66189;SDS011;52992;52.084;5.412;2022-08-03T15:42:26;4.82;;;2.60;;
66189;SDS011;52992;52.084;5.412;2022-08-03T15:44:53;5.65;;;2.72;;
66189;SDS011;52992;52.084;5.412;2022-08-03T15:47:20;6.43;;;3.28;;
66189;SDS011;52992;52.084;5.412;2022-08-03T15:49:47;8.57;;;2.72;;
66189;SDS011;52992;52.084;5.412;2022-08-03T15:52:14;3.33;;;2.55;;
66189;SDS011;52992;52.084;5.412;2022-08-03T15:54:41;4.68;;;2.20;;
66189;SDS011;52992;52.084;5.412;2022-08-03T15:57:08;2.30;;;2.03;;
66189;SDS011;52992;52.084;5.412;2022-08-03T15:59:35;4.43;;;2.10;;
66189;SDS011;52992;52.084;5.412;2022-08-03T16:02:02;7.45;;;2.08;;